Time;durP1;ratioP1;P1;durP2;ratioP2;P2;SDS_P1;SDS_P2;PMS_P1;PMS_P2;Temp;Humidity;BMP_temperature;BMP_pressure;BME280_temperature;BME280_humidity;BME280_pressure;Samples;Min_cycle;Max_cycle;Signal;HPM_P1;HPM_P2
2023/01/09 00:00:14;;;;;;;2.47;2.10;;;7.00;99.90;;;;;;5003384;28;20179;-81
2023/01/09 00:02:40;;;;;;;2.10;1.45;;;7.00;99.90;;;;;;4995062;28;20313;-82
2023/01/09 00:05:07;;;;;;;1.27;0.98;;;6.90;99.90;;;;;;4985880;28;20246;-82
2023/01/09 00:07:33;;;;;;;4.97;3.67;;;6.90;99.90;;;;;;4977257;28;20247;-82
2023/01/09 00:09:58;;;;;;;2.27;1.67;;;6.90;99.90;;;;;;4978515;28;20172;-82
2023/01/09 00:12:24;;;;;;;1.20;0.70;;;6.80;99.90;;;;;;4978914;28;20268;-85
2023/01/09 00:14:49;;;;;;;1.60;1.50;;;6.80;99.90;;;;;;4977749;28;20184;-82
2023/01/09 00:17:15;;;;;;;1.10;1.00;;;6.80;99.90;;;;;;4978022;28;20185;-82
2023/01/09 00:19:41;;;;;;;3.13;2.10;;;6.80;99.90;;;;;;4977672;28;20284;-82
2023/01/09 00:22:08;;;;;;;10.23;7.20;;;6.70;99.90;;;;;;4979043;28;20191;-82
2023/01/09 00:24:37;;;;;;;2.30;1.00;;;6.70;99.90;;;;;;4978284;28;20270;-82
2023/01/09 00:27:02;;;;;;;4.28;3.70;;;6.70;99.90;;;;;;4977243;28;20188;-83
2023/01/09 00:29:28;;;;;;;1.37;0.97;;;6.60;99.90;;;;;;4961072;28;20546;-83
2023/01/09 00:31:53;;;;;;;1.93;1.30;;;6.60;99.90;;;;;;4977183;28;20180;-82
2023/01/09 00:34:19;;;;;;;2.50;1.87;;;6.60;99.90;;;;;;4976546;28;20682;-82
2023/01/09 00:36:45;;;;;;;1.10;0.90;;;6.60;99.90;;;;;;4978269;28;20632;-82
2023/01/09 00:39:10;;;;;;;1.07;0.80;;;6.60;99.90;;;;;;4977429;28;20259;-81
2023/01/09 00:41:40;;;;;;;2.77;2.50;;;6.60;99.90;;;;;;4960711;28;20249;-83
2023/01/09 00:44:13;;;;;;;1.45;1.10;;;6.60;99.90;;;;;;4978542;28;20279;-81
2023/01/09 00:46:44;;;;;;;0.70;0.57;;;6.60;99.90;;;;;;4977336;28;20598;-82
2023/01/09 00:49:11;;;;;;;0.80;0.60;;;6.60;99.90;;;;;;4976784;28;20196;-82
2023/01/09 00:51:40;;;;;;;0.90;0.80;;;6.60;99.90;;;;;;4979705;28;20190;-82
2023/01/09 00:54:05;;;;;;;1.08;0.60;;;6.70;99.90;;;;;;4997031;28;20253;-82
2023/01/09 00:56:33;;;;;;;0.70;0.57;;;6.70;99.90;;;;;;4979715;28;20187;-82
2023/01/09 00:58:59;;;;;;;0.60;0.60;;;6.70;99.90;;;;;;4996731;28;20417;-82
2023/01/09 01:01:24;;;;;;;0.80;0.50;;;6.70;99.90;;;;;;4997274;28;20176;-82
2023/01/09 01:03:50;;;;;;;1.10;0.50;;;6.70;99.90;;;;;;4979314;28;20637;-82
2023/01/09 01:09:00;;;;;;;0.70;0.60;;;6.70;99.90;;;;;;4983340;28;20194;-82
2023/01/09 01:11:25;;;;;;;0.70;0.50;;;6.70;99.90;;;;;;4980272;28;20195;-82
2023/01/09 01:13:51;;;;;;;1.10;1.00;;;6.70;99.90;;;;;;4996875;28;20203;-82
2023/01/09 01:16:17;;;;;;;1.03;0.50;;;6.70;99.90;;;;;;4979555;28;20172;-82
2023/01/09 01:18:43;;;;;;;0.60;0.50;;;6.70;99.90;;;;;;4978786;28;20431;-82
2023/01/09 01:21:10;;;;;;;0.60;0.50;;;6.70;99.90;;;;;;4979630;28;20263;-83
2023/01/09 01:23:37;;;;;;;1.55;0.68;;;6.70;99.90;;;;;;4979083;28;20214;-83
2023/01/09 01:26:08;;;;;;;1.17;0.50;;;6.60;99.90;;;;;;4947392;28;20397;-83
2023/01/09 01:28:34;;;;;;;0.70;0.60;;;7.90;99.90;;;;;;4996632;28;20172;-83
2023/01/09 01:31:00;;;;;;;0.97;0.50;;;6.60;99.90;;;;;;4963217;28;20193;-82
2023/01/09 01:33:25;;;;;;;0.60;0.50;;;6.60;99.90;;;;;;4979564;28;20290;-83
2023/01/09 01:36:02;;;;;;;4.27;0.60;;;6.60;99.90;;;;;;4978708;28;20250;-82
2023/01/09 01:38:29;;;;;;;0.85;0.60;;;6.60;99.90;;;;;;4979169;28;20185;-82
2023/01/09 01:40:55;;;;;;;1.10;1.00;;;6.60;99.90;;;;;;4996769;28;20183;-83
2023/01/09 01:43:20;;;;;;;1.50;0.50;;;6.60;99.90;;;;;;4996173;28;20600;-83
2023/01/09 01:45:46;;;;;;;0.80;0.50;;;6.60;99.90;;;;;;4961659;28;20274;-82
2023/01/09 01:48:16;;;;;;;0.90;0.50;;;6.60;99.90;;;;;;4963052;28;20278;-82
2023/01/09 01:50:54;;;;;;;1.00;0.70;;;6.50;99.90;;;;;;4974970;28;20329;-83
2023/01/09 01:53:37;;;;;;;0.82;0.60;;;6.50;99.90;;;;;;4975733;28;20211;-83
2023/01/09 01:56:09;;;;;;;1.80;0.55;;;6.50;99.90;;;;;;4976877;28;20165;-83
2023/01/09 01:58:41;;;;;;;2.60;0.80;;;6.40;99.90;;;;;;4976662;28;20247;-83
2023/01/09 02:01:08;;;;;;;0.60;0.50;;;6.40;99.90;;;;;;4976694;28;20168;-83
2023/01/09 02:03:35;;;;;;;2.20;0.68;;;6.40;99.90;;;;;;4958720;28;20212;-83
2023/01/09 02:06:03;;;;;;;1.20;0.55;;;6.40;99.90;;;;;;4975416;28;20180;-83
2023/01/09 02:08:29;;;;;;;0.70;0.57;;;6.40;99.90;;;;;;4978688;28;20175;-82
2023/01/09 02:10:55;;;;;;;2.15;0.93;;;6.40;99.90;;;;;;4976213;28;20238;-82
2023/01/09 02:13:21;;;;;;;1.53;0.70;;;6.50;99.90;;;;;;4976788;28;20190;-82
2023/01/09 02:16:03;;;;;;;0.80;0.52;;;6.50;99.90;;;;;;4975952;28;20469;-83
2023/01/09 02:18:50;;;;;;;1.52;0.70;;;6.60;99.90;;;;;;4976137;28;20246;-83
2023/01/09 02:21:36;;;;;;;0.82;0.50;;;6.60;99.90;;;;;;4976494;28;20525;-82
2023/01/09 02:24:08;;;;;;;0.80;0.60;;;6.80;99.90;;;;;;4955327;28;20288;-83
2023/01/09 02:26:58;;;;;;;0.60;0.50;;;6.80;99.90;;;;;;4976248;28;20183;-84
2023/01/09 02:29:42;;;;;;;0.80;0.60;;;6.90;99.90;;;;;;4975193;28;20203;-83
2023/01/09 02:32:20;;;;;;;0.88;0.57;;;7.00;99.90;;;;;;4974608;28;20176;-82
2023/01/09 02:35:15;;;;;;;1.60;0.63;;;7.00;99.90;;;;;;4974446;28;20187;-82
2023/01/09 02:37:53;;;;;;;1.17;0.57;;;7.00;99.90;;;;;;4976043;28;20207;-83
2023/01/09 02:40:46;;;;;;;1.45;0.50;;;7.00;99.90;;;;;;4975977;28;20186;-83
2023/01/09 02:43:12;;;;;;;0.68;0.60;;;7.10;99.90;;;;;;4974014;28;20608;-82
2023/01/09 02:45:38;;;;;;;2.17;0.82;;;7.10;99.90;;;;;;4974554;28;20180;-83
2023/01/09 02:48:04;;;;;;;1.87;0.60;;;7.10;99.90;;;;;;4976015;28;20280;-82
2023/01/09 02:50:37;;;;;;;1.30;0.50;;;7.10;99.90;;;;;;4974614;28;20264;-83
2023/01/09 02:53:10;;;;;;;0.88;0.70;;;7.10;99.90;;;;;;4975461;28;20403;-83
2023/01/09 02:56:19;;;;;;;1.30;0.70;;;7.10;99.90;;;;;;4974655;28;20234;-82
2023/01/09 02:59:15;;;;;;;1.15;0.70;;;7.10;99.90;;;;;;4975316;28;20176;-82
2023/01/09 03:01:48;;;;;;;1.55;0.80;;;7.10;99.90;;;;;;4974626;28;20290;-82
2023/01/09 03:04:39;;;;;;;4.68;0.90;;;7.10;99.90;;;;;;4974652;28;20250;-82
2023/01/09 03:07:26;;;;;;;3.08;0.80;;;7.00;99.90;;;;;;4974284;28;20206;-82
2023/01/09 03:09:59;;;;;;;2.08;0.70;;;6.90;99.90;;;;;;4974329;28;20177;-82
2023/01/09 03:12:28;;;;;;;1.38;0.60;;;6.80;99.90;;;;;;4974368;28;20238;-83
2023/01/09 03:14:58;;;;;;;1.02;0.80;;;6.70;99.90;;;;;;4975365;28;20634;-82
2023/01/09 03:17:37;;;;;;;2.65;1.10;;;6.70;99.90;;;;;;4975609;28;20538;-83
2023/01/09 03:20:06;;;;;;;2.60;0.90;;;6.60;99.90;;;;;;4973978;28;20195;-82
2023/01/09 03:22:31;;;;;;;4.75;0.80;;;6.60;99.90;;;;;;4975243;28;20540;-83
2023/01/09 03:24:57;;;;;;;2.73;0.77;;;6.50;99.90;;;;;;4975627;28;20203;-82
2023/01/09 03:27:23;;;;;;;1.00;0.70;;;6.50;99.90;;;;;;4974293;28;20423;-83
2023/01/09 03:29:50;;;;;;;3.33;1.03;;;6.40;99.90;;;;;;4975312;28;20267;-83
2023/01/09 03:32:15;;;;;;;3.88;1.10;;;6.40;99.90;;;;;;4974615;28;20186;-82
2023/01/09 03:34:41;;;;;;;2.87;1.17;;;6.40;99.90;;;;;;4977511;28;20668;-82
2023/01/09 03:37:07;;;;;;;3.63;1.00;;;6.40;99.90;;;;;;4976907;28;20184;-82
2023/01/09 03:39:32;;;;;;;4.37;1.10;;;6.30;99.90;;;;;;4958477;28;20199;-83
2023/01/09 03:41:58;;;;;;;3.70;1.17;;;6.30;99.90;;;;;;4974176;28;20183;-83
2023/01/09 03:44:23;;;;;;;3.53;0.87;;;6.30;99.90;;;;;;4974155;28;20220;-82
2023/01/09 03:46:49;;;;;;;5.43;1.83;;;6.20;99.90;;;;;;4957883;28;20184;-83
2023/01/09 03:49:16;;;;;;;1.33;0.80;;;6.20;99.90;;;;;;4942387;28;20252;-82
2023/01/09 03:51:42;;;;;;;3.35;1.00;;;6.10;99.90;;;;;;4977288;28;20631;-83
2023/01/09 03:54:08;;;;;;;6.10;1.50;;;6.00;99.90;;;;;;4994482;28;20195;-83
2023/01/09 03:56:34;;;;;;;2.80;0.90;;;6.00;99.90;;;;;;4977340;28;20904;-83
2023/01/09 03:58:59;;;;;;;3.07;1.10;;;6.00;99.90;;;;;;4961038;28;20417;-83
2023/01/09 04:01:25;;;;;;;4.53;1.03;;;5.90;99.90;;;;;;4977605;28;20187;-82
2023/01/09 04:03:50;;;;;;;10.40;2.00;;;5.80;99.90;;;;;;4976788;28;20219;-83
2023/01/09 04:06:16;;;;;;;3.57;1.50;;;5.80;99.90;;;;;;4994916;28;20329;-83
2023/01/09 04:08:42;;;;;;;5.00;2.23;;;5.70;99.90;;;;;;4977937;28;20191;-83
2023/01/09 04:11:07;;;;;;;5.50;2.23;;;5.60;99.90;;;;;;4998036;28;20185;-83
2023/01/09 04:13:33;;;;;;;15.03;7.93;;;5.50;99.90;;;;;;4980849;28;20183;-83
2023/01/09 04:15:58;;;;;;;9.70;4.17;;;5.40;99.90;;;;;;4980520;28;20211;-83
2023/01/09 04:18:24;;;;;;;6.07;3.30;;;5.40;99.90;;;;;;4965037;28;20780;-82
2023/01/09 04:20:50;;;;;;;7.93;4.80;;;5.30;99.90;;;;;;4964437;28;20176;-83
2023/01/09 04:23:15;;;;;;;3.37;1.70;;;5.20;99.90;;;;;;4980426;28;20516;-82
2023/01/09 04:25:41;;;;;;;2.40;1.13;;;5.20;99.90;;;;;;4997731;28;20179;-82
2023/01/09 04:28:07;;;;;;;5.70;1.40;;;5.20;99.90;;;;;;4964232;28;20860;-83
2023/01/09 04:30:32;;;;;;;5.03;1.57;;;5.20;99.90;;;;;;4964083;28;20667;-83
2023/01/09 04:32:58;;;;;;;5.03;1.03;;;5.20;99.90;;;;;;4980474;28;20180;-82
2023/01/09 04:35:23;;;;;;;3.33;0.93;;;5.30;99.90;;;;;;4964328;28;20189;-83
2023/01/09 04:37:49;;;;;;;6.93;3.10;;;5.30;99.90;;;;;;4964062;28;20214;-82
2023/01/09 04:40:15;;;;;;;8.90;4.43;;;5.30;99.90;;;;;;4963910;28;20237;-82
2023/01/09 04:42:41;;;;;;;6.77;3.00;;;5.30;99.90;;;;;;4979968;28;20932;-83
2023/01/09 04:45:09;;;;;;;24.65;12.50;;;5.30;99.90;;;;;;4997787;28;20473;-83
2023/01/09 04:47:34;;;;;;;8.63;2.97;;;5.40;99.90;;;;;;4964290;28;20188;-83
2023/01/09 04:50:00;;;;;;;7.03;1.97;;;5.40;99.90;;;;;;4979434;28;20258;-82
2023/01/09 04:52:26;;;;;;;5.37;2.70;;;5.50;99.90;;;;;;4980402;28;20183;-82
2023/01/09 04:54:52;;;;;;;4.00;1.33;;;5.50;99.90;;;;;;4963491;28;20419;-82
2023/01/09 04:57:17;;;;;;;4.47;2.40;;;5.60;99.90;;;;;;4997350;28;20237;-82
2023/01/09 04:59:43;;;;;;;4.50;2.10;;;5.60;99.90;;;;;;4979902;28;20629;-82
2023/01/09 05:02:09;;;;;;;3.47;1.27;;;5.70;99.90;;;;;;4964542;28;20186;-82
2023/01/09 05:04:35;;;;;;;2.78;1.15;;;5.70;99.90;;;;;;4997825;28;20219;-82
2023/01/09 05:07:00;;;;;;;3.50;1.20;;;5.80;99.90;;;;;;4982081;28;20183;-82
2023/01/09 05:09:26;;;;;;;7.60;1.20;;;5.90;99.90;;;;;;4964367;28;20214;-82
2023/01/09 05:11:52;;;;;;;5.50;1.13;;;5.90;99.90;;;;;;4997180;28;20173;-82
2023/01/09 05:14:18;;;;;;;2.93;1.20;;;5.90;99.90;;;;;;4980080;28;20472;-82
2023/01/09 05:16:43;;;;;;;3.87;1.10;;;6.00;99.90;;;;;;4963341;28;20187;-82
2023/01/09 05:19:09;;;;;;;2.33;1.50;;;6.00;99.90;;;;;;4992077;28;20257;-83
2023/01/09 05:21:35;;;;;;;10.90;1.57;;;6.00;99.90;;;;;;5014223;28;20203;-83
2023/01/09 05:24:00;;;;;;;2.97;1.13;;;6.10;99.90;;;;;;4949657;28;20214;-82
2023/01/09 05:26:26;;;;;;;2.93;0.93;;;6.10;99.90;;;;;;4964139;28;20238;-82
2023/01/09 05:28:53;;;;;;;6.23;1.40;;;6.10;99.90;;;;;;4980460;28;20249;-83
2023/01/09 05:31:21;;;;;;;2.65;0.80;;;6.20;99.90;;;;;;4948189;28;20181;-82
2023/01/09 05:33:46;;;;;;;5.53;0.90;;;6.20;99.90;;;;;;4979504;28;20187;-82
2023/01/09 05:36:12;;;;;;;7.47;1.50;;;6.20;99.90;;;;;;4979367;28;20232;-82
2023/01/09 05:38:37;;;;;;;3.17;1.10;;;6.30;99.90;;;;;;4996462;28;20325;-83
2023/01/09 05:41:03;;;;;;;5.90;1.40;;;6.30;99.90;;;;;;4979163;28;20198;-82
2023/01/09 05:43:29;;;;;;;6.60;1.57;;;6.40;99.90;;;;;;4962894;28;20224;-83
2023/01/09 05:45:55;;;;;;;9.10;1.23;;;6.40;99.90;;;;;;4978890;28;20787;-82
2023/01/09 05:48:20;;;;;;;2.17;0.90;;;6.40;99.90;;;;;;4978816;28;20191;-82
2023/01/09 05:50:46;;;;;;;2.20;0.73;;;6.40;99.90;;;;;;4996040;28;20227;-82
2023/01/09 05:53:11;;;;;;;2.13;0.97;;;6.40;99.90;;;;;;4978983;28;20625;-82
2023/01/09 05:55:37;;;;;;;3.70;1.13;;;6.40;99.90;;;;;;4962844;28;20270;-82
2023/01/09 05:58:03;;;;;;;1.90;1.17;;;6.40;99.90;;;;;;4978543;28;20171;-83
2023/01/09 06:00:29;;;;;;;3.57;1.40;;;6.40;99.90;;;;;;4996696;28;20636;-82
2023/01/09 06:02:54;;;;;;;4.00;1.50;;;6.50;99.90;;;;;;4962614;28;20279;-83
2023/01/09 06:05:20;;;;;;;1.70;1.00;;;6.50;99.90;;;;;;4962640;28;20473;-82
2023/01/09 06:07:45;;;;;;;2.43;1.00;;;6.50;99.90;;;;;;4995482;28;20187;-82
2023/01/09 06:10:13;;;;;;;2.63;0.97;;;6.50;99.90;;;;;;4978872;28;20207;-82
2023/01/09 06:12:41;;;;;;;1.42;0.77;;;6.50;99.90;;;;;;4996493;28;20176;-81
2023/01/09 06:15:07;;;;;;;5.38;1.95;;;6.50;99.90;;;;;;4978624;28;20184;-82
2023/01/09 06:17:33;;;;;;;3.00;1.00;;;6.60;99.90;;;;;;4978757;28;20206;-82
2023/01/09 06:19:58;;;;;;;3.03;0.80;;;6.60;99.90;;;;;;4978492;28;20190;-82
2023/01/09 06:22:24;;;;;;;6.17;0.90;;;6.60;99.90;;;;;;4962226;28;20187;-82
2023/01/09 06:24:49;;;;;;;5.13;1.37;;;6.60;99.90;;;;;;4978269;28;20235;-82
2023/01/09 06:27:15;;;;;;;4.50;1.50;;;6.60;99.90;;;;;;4962398;28;20185;-82
2023/01/09 06:29:40;;;;;;;10.43;1.30;;;6.60;99.90;;;;;;4962220;28;20190;-82
2023/01/09 06:32:06;;;;;;;1.90;1.00;;;6.60;99.90;;;;;;4961481;28;20651;-82
2023/01/09 06:34:32;;;;;;;6.53;1.00;;;6.60;99.90;;;;;;4978448;28;20194;-82
2023/01/09 06:36:57;;;;;;;1.83;0.80;;;6.60;99.90;;;;;;4978064;28;20553;-82
2023/01/09 06:39:23;;;;;;;4.80;1.30;;;6.60;99.90;;;;;;4962237;28;20661;-82
2023/01/09 06:41:48;;;;;;;2.00;0.90;;;6.60;99.90;;;;;;4977714;28;20184;-82
2023/01/09 06:44:14;;;;;;;2.83;0.73;;;6.60;99.90;;;;;;4978022;28;20310;-82
2023/01/09 06:46:40;;;;;;;2.27;1.30;;;6.60;99.90;;;;;;4978632;28;20206;-82
2023/01/09 06:49:05;;;;;;;2.87;1.00;;;6.60;99.90;;;;;;4977830;28;20198;-83
2023/01/09 06:51:31;;;;;;;3.23;0.93;;;6.60;99.90;;;;;;4977843;28;20235;-82
2023/01/09 06:53:56;;;;;;;1.40;1.30;;;6.60;99.90;;;;;;4978009;28;20535;-82
2023/01/09 06:56:22;;;;;;;1.77;1.10;;;6.70;99.90;;;;;;4961536;28;20206;-82
2023/01/09 06:58:47;;;;;;;1.20;0.70;;;6.70;99.90;;;;;;4945551;28;20179;-82
2023/01/09 07:01:13;;;;;;;2.17;0.80;;;6.70;99.90;;;;;;4977952;28;20191;-82
2023/01/09 07:03:39;;;;;;;2.43;1.27;;;6.70;99.90;;;;;;4962138;28;20258;-82
2023/01/09 07:06:05;;;;;;;3.50;1.00;;;6.70;99.90;;;;;;4995104;28;20180;-82
2023/01/09 07:08:33;;;;;;;8.48;1.20;;;6.80;99.90;;;;;;4978044;28;20184;-82
2023/01/09 07:10:58;;;;;;;2.47;1.05;;;6.90;99.90;;;;;;4978605;28;20273;-82
2023/01/09 07:13:24;;;;;;;2.40;1.20;;;6.90;99.90;;;;;;4978659;28;20206;-81
2023/01/09 07:15:52;;;;;;;1.50;0.97;;;6.90;99.90;;;;;;4945964;28;20182;-80
2023/01/09 07:18:18;;;;;;;4.63;1.60;;;7.00;99.90;;;;;;4978635;28;20194;-82
2023/01/09 07:20:43;;;;;;;2.40;0.70;;;7.00;99.90;;;;;;4962153;28;20186;-82
2023/01/09 07:23:12;;;;;;;1.90;1.00;;;7.00;99.90;;;;;;4977600;28;20183;-82
2023/01/09 07:25:39;;;;;;;3.88;1.35;;;7.10;99.90;;;;;;4978380;28;20652;-81
2023/01/09 07:28:05;;;;;;;1.90;0.90;;;7.10;99.90;;;;;;4978107;28;20180;-82
2023/01/09 07:30:32;;;;;;;7.23;0.73;;;7.10;99.90;;;;;;4978556;28;20191;-83
2023/01/09 07:32:58;;;;;;;6.25;1.45;;;7.10;99.90;;;;;;4977979;28;20194;-84
2023/01/09 07:35:23;;;;;;;2.60;0.90;;;7.10;99.90;;;;;;4977896;28;20682;-84
2023/01/09 07:37:49;;;;;;;4.27;1.10;;;7.10;99.90;;;;;;4961676;28;20437;-83
2023/01/09 07:40:15;;;;;;;5.53;1.10;;;7.10;99.90;;;;;;4977573;28;20184;-84
2023/01/09 07:42:40;;;;;;;3.20;0.90;;;7.10;99.90;;;;;;4995148;28;20558;-83
2023/01/09 07:45:06;;;;;;;1.63;0.80;;;7.20;99.90;;;;;;4980445;28;20238;-83
2023/01/09 07:47:32;;;;;;;2.40;1.00;;;7.20;99.90;;;;;;4965357;28;20191;-84
2023/01/09 07:49:57;;;;;;;3.10;1.37;;;7.20;99.90;;;;;;4997989;28;20231;-84
2023/01/09 07:52:23;;;;;;;2.60;0.80;;;7.20;99.90;;;;;;4998826;28;20624;-84
2023/01/09 07:54:49;;;;;;;2.70;0.80;;;7.20;99.90;;;;;;4965252;28;20188;-84
2023/01/09 07:57:14;;;;;;;4.40;1.03;;;7.20;99.90;;;;;;4997927;28;20222;-84
2023/01/09 07:59:40;;;;;;;2.20;1.00;;;7.20;99.90;;;;;;4980890;28;20184;-84
2023/01/09 08:02:08;;;;;;;1.90;0.93;;;7.20;99.90;;;;;;4981466;28;20176;-84
2023/01/09 08:04:33;;;;;;;5.50;1.30;;;7.20;99.90;;;;;;4985580;28;20206;-85
2023/01/09 08:06:59;;;;;;;3.10;1.00;;;7.20;99.90;;;;;;5015048;28;20175;-83
2023/01/09 08:09:24;;;;;;;1.23;0.93;;;7.20;99.90;;;;;;5007602;28;20688;-84
2023/01/09 08:11:50;;;;;;;4.27;1.03;;;7.30;99.90;;;;;;4999388;28;20650;-84
2023/01/09 08:14:16;;;;;;;7.67;0.97;;;7.30;99.90;;;;;;4981211;28;20187;-84
2023/01/09 08:16:42;;;;;;;5.60;1.10;;;7.30;99.90;;;;;;4981184;28;20210;-84
2023/01/09 08:19:10;;;;;;;3.05;0.90;;;7.30;99.90;;;;;;4964505;28;20192;-80
2023/01/09 08:21:36;;;;;;;2.53;0.90;;;7.30;99.90;;;;;;4981154;28;20781;-80
2023/01/09 08:24:02;;;;;;;8.97;1.40;;;7.30;99.90;;;;;;4964681;28;20223;-80
2023/01/09 08:26:27;;;;;;;4.80;1.17;;;7.30;99.90;;;;;;4981693;28;20430;-80
2023/01/09 08:28:53;;;;;;;2.50;0.97;;;7.30;99.90;;;;;;4965093;28;20210;-80
2023/01/09 08:31:18;;;;;;;1.50;0.73;;;7.30;99.90;;;;;;4948899;28;20723;-82
2023/01/09 08:33:44;;;;;;;3.47;1.00;;;7.40;99.90;;;;;;4998335;28;20569;-80
2023/01/09 08:36:10;;;;;;;4.07;1.00;;;7.40;99.90;;;;;;4980872;28;20234;-80
2023/01/09 08:38:35;;;;;;;4.40;1.00;;;7.40;99.90;;;;;;4964384;28;20179;-84
2023/01/09 08:47:04;;;;;;;2.10;1.10;;;7.40;99.90;;;;;;4996621;28;20218;-84
2023/01/09 08:49:15;;;;;;;7.57;0.85;;;7.60;99.90;;;;;;4982180;28;20194;-84
2023/01/09 08:51:40;;;;;;;1.53;1.00;;;7.60;99.90;;;;;;4980154;28;20187;-85
2023/01/09 08:54:06;;;;;;;2.00;0.80;;;7.60;99.90;;;;;;4947853;28;20193;-83
2023/01/09 08:56:32;;;;;;;2.10;1.13;;;7.60;99.90;;;;;;4979759;28;20182;-82
2023/01/09 08:58:57;;;;;;;8.53;0.97;;;7.50;99.90;;;;;;4979413;28;20175;-83
2023/01/09 09:01:23;;;;;;;1.50;0.87;;;7.50;99.90;;;;;;4963486;28;20215;-83
2023/01/09 09:03:48;;;;;;;1.87;0.83;;;7.40;99.90;;;;;;4979694;28;20568;-83
2023/01/09 09:06:14;;;;;;;3.20;0.83;;;7.40;99.90;;;;;;4978820;28;20184;-83
2023/01/09 09:08:39;;;;;;;4.43;1.23;;;7.40;99.90;;;;;;4996859;28;20198;-83
2023/01/09 09:11:05;;;;;;;3.10;1.13;;;7.50;99.90;;;;;;4978940;28;20181;-83
2023/01/09 09:13:31;;;;;;;4.63;1.00;;;7.60;99.90;;;;;;4979040;28;20178;-83
2023/01/09 09:15:56;;;;;;;4.93;0.83;;;7.60;99.90;;;;;;4995922;28;20191;-84
2023/01/09 09:18:22;;;;;;;1.80;0.87;;;7.60;99.90;;;;;;4979034;28;20429;-84
2023/01/09 09:20:47;;;;;;;2.70;1.03;;;7.70;99.90;;;;;;4996641;28;20194;-84
2023/01/09 09:23:13;;;;;;;2.97;0.70;;;7.80;99.90;;;;;;4996439;28;20181;-84
2023/01/09 09:25:39;;;;;;;3.10;0.80;;;7.90;99.90;;;;;;4997304;28;20234;-84
2023/01/09 09:28:06;;;;;;;1.10;0.70;;;7.90;99.90;;;;;;4977059;28;20195;-81
2023/01/09 09:30:32;;;;;;;3.28;1.40;;;8.00;99.90;;;;;;4972942;28;20195;-82
2023/01/09 09:32:57;;;;;;;5.20;0.90;;;8.00;99.90;;;;;;4989867;28;20187;-81
2023/01/09 09:35:23;;;;;;;2.00;0.90;;;8.00;99.90;;;;;;4973601;28;20879;-82
2023/01/09 09:37:57;;;;;;;2.90;0.80;;;8.10;99.90;;;;;;4973180;28;20262;-84
2023/01/09 09:40:43;;;;;;;5.00;1.20;;;8.10;99.90;;;;;;4972215;28;20179;-83
2023/01/09 09:46:26;;;;;;;1.40;0.90;;;8.20;99.90;;;;;;4996275;28;20650;-85
2023/01/09 09:48:56;;;;;;;1.70;0.93;;;8.30;99.90;;;;;;4995872;28;20179;-82
2023/01/09 09:51:25;;;;;;;3.42;1.10;;;8.30;99.90;;;;;;4978425;28;20669;-84
2023/01/09 09:53:54;;;;;;;2.25;0.70;;;8.30;99.90;;;;;;4978384;28;20188;-84
2023/01/09 09:56:22;;;;;;;1.60;0.77;;;8.40;99.90;;;;;;4995892;28;20649;-84
2023/01/09 09:58:56;;;;;;;4.78;0.63;;;8.40;99.90;;;;;;4963123;28;20273;-84
2023/01/09 10:01:26;;;;;;;2.13;0.90;;;8.40;99.90;;;;;;4995962;28;20617;-84
2023/01/09 10:03:56;;;;;;;1.90;0.60;;;8.50;99.90;;;;;;4978643;28;20211;-83
2023/01/09 10:06:41;;;;;;;4.05;0.93;;;8.50;99.90;;;;;;4994676;28;20168;-84
2023/01/09 10:09:39;;;;;;;2.08;0.70;;;8.50;99.90;;;;;;4995120;28;20176;-84
2023/01/09 10:12:20;;;;;;;1.30;0.55;;;8.50;99.90;;;;;;4977965;28;20191;-83
2023/01/09 10:14:45;;;;;;;3.25;1.02;;;8.50;99.90;;;;;;4995343;28;20237;-84
2023/01/09 10:17:33;;;;;;;2.73;1.07;;;8.50;99.90;;;;;;4978343;28;20645;-84
2023/01/09 10:20:17;;;;;;;3.55;1.20;;;8.40;99.90;;;;;;4978290;28;20326;-84
2023/01/09 10:23:03;;;;;;;2.22;0.82;;;8.40;99.90;;;;;;4978336;28;20171;-84
2023/01/09 10:25:28;;;;;;;1.75;0.70;;;8.40;99.90;;;;;;4978315;28;20306;-83
2023/01/09 10:28:03;;;;;;;2.13;0.70;;;8.40;99.90;;;;;;4995482;28;20263;-83
2023/01/09 10:30:47;;;;;;;1.42;0.95;;;8.40;99.90;;;;;;4994961;28;20186;-84
2023/01/09 10:33:33;;;;;;;1.67;0.77;;;8.40;99.90;;;;;;4994245;28;20245;-84
2023/01/09 10:36:07;;;;;;;2.33;0.80;;;8.40;99.90;;;;;;4990023;28;20174;-84
2023/01/09 10:38:39;;;;;;;1.45;1.15;;;8.40;99.90;;;;;;4977268;28;20174;-84
2023/01/09 10:41:17;;;;;;;1.98;0.65;;;8.40;99.90;;;;;;4977084;28;20211;-82
2023/01/09 10:44:14;;;;;;;2.28;1.80;;;8.40;99.90;;;;;;4994475;28;20711;-84
2023/01/09 10:46:48;;;;;;;5.60;1.40;;;8.40;99.90;;;;;;4979477;28;20222;-84
2023/01/09 10:49:17;;;;;;;1.23;0.70;;;8.50;99.90;;;;;;4995172;28;20187;-85
2023/01/09 10:52:10;;;;;;;1.95;0.80;;;8.50;99.90;;;;;;5005060;28;20206;-84
2023/01/09 10:54:44;;;;;;;2.03;1.05;;;8.50;99.90;;;;;;4986623;28;20209;-85
2023/01/09 10:57:18;;;;;;;2.95;0.70;;;8.40;99.90;;;;;;4995302;28;20171;-85
2023/01/09 10:59:44;;;;;;;2.72;1.13;;;8.50;99.90;;;;;;4979497;28;20612;-85
2023/01/09 11:02:23;;;;;;;0.80;0.67;;;8.50;99.90;;;;;;4965344;28;20202;-85
2023/01/09 11:04:49;;;;;;;1.55;0.80;;;8.50;99.90;;;;;;4981868;28;20210;-85
2023/01/09 11:07:19;;;;;;;2.03;0.77;;;8.50;99.90;;;;;;4981737;28;20188;-84
2023/01/09 11:10:10;;;;;;;1.85;0.70;;;8.50;99.90;;;;;;4981988;28;20567;-84
2023/01/09 11:12:37;;;;;;;4.78;0.90;;;8.40;99.90;;;;;;4979960;28;20206;-84
2023/01/09 11:15:27;;;;;;;2.33;0.80;;;8.40;99.90;;;;;;4978256;28;20698;-83
2023/01/09 11:17:55;;;;;;;1.30;0.60;;;8.40;99.90;;;;;;4996901;28;20191;-84
2023/01/09 11:20:28;;;;;;;1.95;0.60;;;8.40;99.90;;;;;;4965744;28;20553;-84
2023/01/09 11:22:56;;;;;;;1.00;0.60;;;8.40;99.90;;;;;;4999361;28;20274;-83
2023/01/09 11:25:27;;;;;;;1.23;0.90;;;8.40;99.90;;;;;;4981120;28;20226;-84
2023/01/09 11:28:01;;;;;;;1.02;0.70;;;8.40;99.90;;;;;;4994438;28;20159;-82
2023/01/09 11:30:28;;;;;;;2.55;0.63;;;8.30;99.90;;;;;;4974958;28;20342;-83
2023/01/09 11:32:55;;;;;;;1.25;0.70;;;8.40;99.90;;;;;;4995039;28;20183;-83
2023/01/09 11:35:34;;;;;;;2.10;0.77;;;8.40;99.90;;;;;;4976752;28;20269;-83
2023/01/09 11:38:04;;;;;;;2.05;0.90;;;8.40;99.90;;;;;;4976721;28;20279;-84
2023/01/09 11:40:43;;;;;;;0.93;0.60;;;8.40;99.90;;;;;;4997617;28;20164;-83
2023/01/09 11:43:45;;;;;;;0.80;0.60;;;8.30;99.90;;;;;;4981058;28;20619;-85
2023/01/09 11:46:40;;;;;;;1.25;0.68;;;8.20;99.90;;;;;;4922983;29;20220;-85
2023/01/09 11:49:26;;;;;;;0.70;0.70;;;8.20;99.90;;;;;;4981675;28;20191;-82
2023/01/09 11:52:19;;;;;;;1.75;0.70;;;8.20;99.90;;;;;;4980827;28;20214;-84
2023/01/09 11:54:53;;;;;;;0.70;0.60;;;8.30;99.90;;;;;;4981113;28;20199;-85
2023/01/09 11:57:20;;;;;;;3.10;0.90;;;8.30;99.90;;;;;;4981085;28;20198;-84
2023/01/09 11:59:46;;;;;;;1.33;0.50;;;8.30;99.90;;;;;;4998439;28;20179;-84
2023/01/09 12:02:36;;;;;;;1.23;0.60;;;8.40;99.90;;;;;;4997855;28;20202;-84
2023/01/09 12:05:07;;;;;;;1.60;0.60;;;8.30;99.90;;;;;;4983715;28;20207;-83
2023/01/09 12:08:08;;;;;;;1.25;0.60;;;8.30;99.90;;;;;;4998212;28;20176;-84
2023/01/09 12:11:11;;;;;;;1.30;0.68;;;8.40;99.90;;;;;;4982261;28;20196;-84
2023/01/09 12:13:36;;;;;;;1.15;0.60;;;8.80;99.90;;;;;;4981164;28;20182;-84
2023/01/09 12:16:07;;;;;;;0.80;0.57;;;8.70;99.90;;;;;;4983247;28;20282;-84
2023/01/09 12:18:54;;;;;;;1.80;0.60;;;8.60;99.90;;;;;;5002602;28;20215;-83
2023/01/09 12:21:44;;;;;;;1.70;0.70;;;8.50;99.90;;;;;;5001889;28;20172;-83
2023/01/09 12:24:31;;;;;;;1.25;1.05;;;8.40;99.90;;;;;;4985157;28;20217;-83
2023/01/09 12:27:23;;;;;;;0.80;0.60;;;8.30;99.90;;;;;;4982299;28;20183;-83
2023/01/09 12:30:00;;;;;;;1.60;0.70;;;8.40;99.90;;;;;;4980193;28;20265;-84
2023/01/09 12:32:37;;;;;;;1.45;0.82;;;8.30;99.90;;;;;;4980059;28;20187;-84
2023/01/09 12:35:09;;;;;;;1.40;0.70;;;8.20;99.90;;;;;;4980444;28;20182;-84
2023/01/09 12:38:02;;;;;;;0.90;0.60;;;8.30;99.90;;;;;;4980639;28;20183;-85
2023/01/09 12:40:54;;;;;;;3.80;1.05;;;8.30;99.90;;;;;;4996329;28;20680;-83
2023/01/09 12:43:58;;;;;;;1.35;0.65;;;8.40;99.90;;;;;;4968593;28;20184;-84
2023/01/09 12:46:27;;;;;;;1.17;0.68;;;8.40;99.90;;;;;;4979331;28;20199;-85
2023/01/09 12:49:08;;;;;;;2.72;0.80;;;8.40;99.90;;;;;;4980094;28;20195;-85
2023/01/09 12:52:00;;;;;;;2.20;0.70;;;8.50;99.90;;;;;;4979335;28;20297;-85
2023/01/09 12:54:46;;;;;;;1.33;0.80;;;8.50;99.90;;;;;;4997297;28;20183;-85
2023/01/09 12:57:11;;;;;;;4.63;0.93;;;8.50;99.90;;;;;;4979209;28;20179;-84
2023/01/09 12:59:43;;;;;;;3.43;0.90;;;8.50;99.90;;;;;;4997509;28;20171;-84
2023/01/09 13:02:14;;;;;;;2.63;1.10;;;8.50;99.90;;;;;;4997040;28;20179;-85
2023/01/09 13:04:55;;;;;;;5.65;1.10;;;8.50;99.90;;;;;;4979981;28;20262;-84
2023/01/09 13:07:33;;;;;;;6.13;1.20;;;8.60;99.90;;;;;;4979777;28;20171;-85
2023/01/09 13:10:21;;;;;;;3.50;1.10;;;8.70;99.90;;;;;;4997323;28;20199;-84
2023/01/09 13:12:48;;;;;;;1.80;0.95;;;8.70;99.90;;;;;;4979870;28;20269;-82
2023/01/09 13:15:25;;;;;;;3.85;1.20;;;8.60;99.90;;;;;;4979607;28;20207;-82
2023/01/09 13:18:04;;;;;;;4.05;1.20;;;8.70;99.90;;;;;;4979792;28;20179;-82
2023/01/09 13:20:40;;;;;;;5.93;1.20;;;8.60;99.90;;;;;;4996319;28;21054;-81
2023/01/09 13:23:11;;;;;;;4.22;1.05;;;8.60;99.90;;;;;;4997062;28;20179;-83
2023/01/09 13:25:44;;;;;;;2.03;0.80;;;8.50;99.90;;;;;;4981011;28;20208;-82